Clorinda, Argentina
Current Conditions -  °F | °C
As of 1:00 PM on Saturday 25 Oct 2014 (Local Time) from SGAS Reporting Station
Few Clouds Few Clouds  
Wind Chill: 35°   Ceiling: Unl
Heat Index: 35°   Visibility: 6mi
Dew Point: 16°   Wind: 6mph
Humidity: 32%   Direction: NA
Pressure: 29.83"   Gusts: NA
Location:  25.29°S, 57.72°W
Report Text: SGAS 251600Z VRB05KT 9999 FEW033 35/16 Q1010
Loading
Personal Weather Stations






























Interactive Weather Map
Tropical Storm Tracking
New forecast layout! Learn more

10-Day Weather Forecast

Advertisements
Track Severe Weather on mobile